AAL7574 KEWR-KJFK
Flight info
| Callsign | AAL7574 |
|---|---|
| Flight time | 0h 24m |
| Altitude | 17000 |
| Route | BREZY CMK DENNA T705 BELTT T303 DPK |
| Aircraft | B77W/H-SDE1E2E3FGHIJ2J3J4J5M1RWXY/LB1D1 |
Departure
| Time | 2026-05-07 21:44 |
|---|---|
| Airport | Newark Liberty International Airport (KEWR) |
Arrival
| Time | 2026-05-07 22:09 |
|---|---|
| Airport | John F. Kennedy International Airport (KJFK) |
| Time | Latitude | Longitude | Altitude | Speed | Heading |
|---|---|---|---|---|---|
| 2026-05-07 21:28 | 40.70440 | -74.17354 | 23 ft | 0 kts | 99° |
| 2026-05-07 21:33 | 40.70440 | -74.17355 | 23 ft | 0 kts | 99° |
| 2026-05-07 21:38 | 40.70440 | -74.17354 | 23 ft | 0 kts | 99° |
| 2026-05-07 21:38 | 40.70422 | -74.17344 | 23 ft | 6 kts | 172° |
| 2026-05-07 21:39 | 40.70350 | -74.17280 | 25 ft | 18 kts | 114° |
| 2026-05-07 21:39 | 40.70328 | -74.17116 | 26 ft | 18 kts | 95° |
| 2026-05-07 21:39 | 40.70320 | -74.16998 | 28 ft | 20 kts | 94° |
| 2026-05-07 21:39 | 40.70308 | -74.16810 | 27 ft | 21 kts | 95° |
| 2026-05-07 21:40 | 40.70290 | -74.16559 | 27 ft | 21 kts | 95° |
| 2026-05-07 21:40 | 40.70282 | -74.16422 | 26 ft | 23 kts | 94° |
| 2026-05-07 21:40 | 40.70268 | -74.16199 | 24 ft | 17 kts | 95° |
| 2026-05-07 21:40 | 40.70231 | -74.16086 | 27 ft | 10 kts | 167° |
| 2026-05-07 21:41 | 40.70101 | -74.16155 | 26 ft | 35 kts | 205° |
| 2026-05-07 21:41 | 40.69875 | -74.16298 | 23 ft | 37 kts | 206° |
| 2026-05-07 21:41 | 40.69606 | -74.16469 | 27 ft | 48 kts | 206° |
| 2026-05-07 21:41 | 40.69331 | -74.16646 | 28 ft | 44 kts | 205° |
| 2026-05-07 21:42 | 40.69058 | -74.16819 | 27 ft | 46 kts | 206° |
| 2026-05-07 21:42 | 40.68802 | -74.16983 | 27 ft | 41 kts | 205° |
| 2026-05-07 21:42 | 40.68545 | -74.17145 | 29 ft | 40 kts | 205° |
| 2026-05-07 21:42 | 40.68301 | -74.17299 | 27 ft | 40 kts | 206° |
| 2026-05-07 21:43 | 40.68045 | -74.17463 | 22 ft | 41 kts | 206° |
| 2026-05-07 21:43 | 40.67793 | -74.17622 | 23 ft | 40 kts | 205° |
| 2026-05-07 21:43 | 40.67590 | -74.17752 | 27 ft | 25 kts | 205° |
| 2026-05-07 21:43 | 40.67521 | -74.17849 | 28 ft | 11 kts | 282° |
| 2026-05-07 21:44 | 40.67572 | -74.17916 | 28 ft | 12 kts | 359° |
| 2026-05-07 21:44 | 40.67738 | -74.17815 | 27 ft | 45 kts | 25° |
| 2026-05-07 21:44 | 40.68364 | -74.17422 | 31 ft | 156 kts | 25° |
| 2026-05-07 21:44 | 40.69530 | -74.16659 | 674 ft | 203 kts | 27° |
| 2026-05-07 21:45 | 40.70695 | -74.15627 | 1879 ft | 204 kts | 40° |
| 2026-05-07 21:45 | 40.71777 | -74.14322 | 2663 ft | 222 kts | 39° |
| 2026-05-07 21:45 | 40.73046 | -74.12893 | 3161 ft | 255 kts | 38° |
| 2026-05-07 21:45 | 40.74420 | -74.11363 | 4256 ft | 262 kts | 38° |
| 2026-05-07 21:46 | 40.75893 | -74.09956 | 5372 ft | 261 kts | 20° |
| 2026-05-07 21:46 | 40.77640 | -74.09611 | 6539 ft | 258 kts | 352° |
| 2026-05-07 21:46 | 40.79308 | -74.10407 | 7719 ft | 259 kts | 322° |
| 2026-05-07 21:46 | 40.80534 | -74.12139 | 8657 ft | 261 kts | 315° |
| 2026-05-07 21:47 | 40.82132 | -74.13292 | 9499 ft | 273 kts | 348° |
| 2026-05-07 21:47 | 40.84042 | -74.13172 | 10478 ft | 282 kts | 4° |
| 2026-05-07 21:47 | 40.86071 | -74.12819 | 11040 ft | 311 kts | 360° |
| 2026-05-07 21:47 | 40.88359 | -74.12605 | 11307 ft | 348 kts | 356° |
| 2026-05-07 21:48 | 40.90871 | -74.12217 | 11554 ft | 386 kts | 12° |
| 2026-05-07 21:48 | 40.93282 | -74.10388 | 12490 ft | 416 kts | 37° |
| 2026-05-07 21:48 | 40.95240 | -74.07472 | 13621 ft | 432 kts | 50° |
| 2026-05-07 21:48 | 40.96872 | -74.04060 | 14707 ft | 444 kts | 63° |
| 2026-05-07 21:49 | 40.97827 | -74.00129 | 15730 ft | 455 kts | 79° |
| 2026-05-07 21:49 | 40.98397 | -73.95973 | 16689 ft | 461 kts | 83° |
| 2026-05-07 21:49 | 40.98869 | -73.91731 | 17036 ft | 473 kts | 84° |
| 2026-05-07 21:49 | 40.99326 | -73.87386 | 16992 ft | 480 kts | 84° |
| 2026-05-07 21:50 | 40.99806 | -73.83006 | 16989 ft | 482 kts | 84° |
| 2026-05-07 21:50 | 41.00328 | -73.78605 | 17001 ft | 485 kts | 83° |
| 2026-05-07 21:50 | 41.00893 | -73.74195 | 16994 ft | 486 kts | 82° |
| 2026-05-07 21:50 | 41.01474 | -73.69802 | 16991 ft | 486 kts | 82° |
| 2026-05-07 21:51 | 41.02062 | -73.65409 | 16994 ft | 483 kts | 82° |
| 2026-05-07 21:51 | 41.02647 | -73.61031 | 17002 ft | 483 kts | 82° |
| 2026-05-07 21:51 | 41.03229 | -73.56648 | 16999 ft | 484 kts | 82° |
| 2026-05-07 21:51 | 41.03799 | -73.52234 | 17000 ft | 484 kts | 83° |
| 2026-05-07 21:52 | 41.04373 | -73.47839 | 16998 ft | 485 kts | 82° |
| 2026-05-07 21:52 | 41.04945 | -73.43440 | 16998 ft | 483 kts | 83° |
| 2026-05-07 21:52 | 41.05519 | -73.39057 | 16995 ft | 485 kts | 83° |
| 2026-05-07 21:52 | 41.06085 | -73.34656 | 17000 ft | 485 kts | 83° |
| 2026-05-07 21:53 | 41.06648 | -73.30241 | 16989 ft | 486 kts | 83° |
| 2026-05-07 21:53 | 41.07213 | -73.25828 | 16990 ft | 486 kts | 83° |
| 2026-05-07 21:53 | 41.07779 | -73.21408 | 16992 ft | 486 kts | 83° |
| 2026-05-07 21:53 | 41.08344 | -73.16989 | 16995 ft | 487 kts | 83° |
| 2026-05-07 21:54 | 41.08907 | -73.12562 | 16992 ft | 487 kts | 83° |
| 2026-05-07 21:54 | 41.09234 | -73.08172 | 16980 ft | 477 kts | 97° |
| 2026-05-07 21:54 | 41.08608 | -73.03910 | 17004 ft | 468 kts | 115° |
| 2026-05-07 21:54 | 41.07275 | -73.00119 | 16953 ft | 431 kts | 130° |
| 2026-05-07 21:55 | 41.05493 | -72.97185 | 16343 ft | 395 kts | 150° |
| 2026-05-07 21:55 | 41.03183 | -72.95492 | 15622 ft | 371 kts | 172° |
| 2026-05-07 21:55 | 41.00735 | -72.95232 | 14812 ft | 350 kts | 196° |
| 2026-05-07 21:55 | 40.98547 | -72.96382 | 13988 ft | 335 kts | 220° |
| 2026-05-07 21:56 | 40.97085 | -72.98678 | 13302 ft | 326 kts | 246° |
| 2026-05-07 21:56 | 40.96671 | -73.01608 | 12808 ft | 321 kts | 271° |
| 2026-05-07 21:56 | 40.96960 | -73.04404 | 12280 ft | 301 kts | 269° |
| 2026-05-07 21:56 | 40.96588 | -73.07110 | 11863 ft | 296 kts | 250° |
| 2026-05-07 21:57 | 40.95678 | -73.09536 | 11393 ft | 305 kts | 240° |
| 2026-05-07 21:57 | 40.94396 | -73.11886 | 10858 ft | 326 kts | 233° |
| 2026-05-07 21:57 | 40.92872 | -73.14138 | 10774 ft | 328 kts | 229° |
| 2026-05-07 21:57 | 40.91305 | -73.16188 | 10557 ft | 300 kts | 227° |
| 2026-05-07 21:58 | 40.89857 | -73.17946 | 10408 ft | 266 kts | 226° |
| 2026-05-07 21:58 | 40.88554 | -73.19483 | 10284 ft | 237 kts | 226° |
| 2026-05-07 21:58 | 40.87385 | -73.20855 | 10210 ft | 219 kts | 227° |
| 2026-05-07 21:58 | 40.86154 | -73.22314 | 10187 ft | 253 kts | 226° |
| 2026-05-07 21:59 | 40.84814 | -73.23888 | 9901 ft | 262 kts | 226° |
| 2026-05-07 21:59 | 40.83422 | -73.25508 | 9453 ft | 269 kts | 225° |
| 2026-05-07 21:59 | 40.82012 | -73.27142 | 9078 ft | 270 kts | 225° |
| 2026-05-07 21:59 | 40.80594 | -73.28784 | 8713 ft | 271 kts | 224° |
| 2026-05-07 22:00 | 40.79105 | -73.30324 | 8348 ft | 273 kts | 220° |
| 2026-05-07 22:00 | 40.77574 | -73.31778 | 8135 ft | 267 kts | 219° |
| 2026-05-07 22:00 | 40.76072 | -73.33194 | 7867 ft | 265 kts | 219° |
| 2026-05-07 22:00 | 40.74578 | -73.34604 | 7534 ft | 261 kts | 219° |
| 2026-05-07 22:01 | 40.73105 | -73.36003 | 7213 ft | 261 kts | 220° |
| 2026-05-07 22:01 | 40.71630 | -73.37409 | 6887 ft | 261 kts | 219° |
| 2026-05-07 22:01 | 40.70158 | -73.38818 | 6556 ft | 262 kts | 220° |
| 2026-05-07 22:01 | 40.68681 | -73.40237 | 6238 ft | 263 kts | 219° |
| 2026-05-07 22:02 | 40.67194 | -73.41665 | 5897 ft | 265 kts | 219° |
| 2026-05-07 22:02 | 40.65705 | -73.43094 | 5555 ft | 266 kts | 219° |
| 2026-05-07 22:02 | 40.64210 | -73.44530 | 5216 ft | 266 kts | 219° |
| 2026-05-07 22:02 | 40.62715 | -73.45965 | 4878 ft | 266 kts | 219° |
| 2026-05-07 22:03 | 40.61218 | -73.47400 | 4551 ft | 266 kts | 219° |
| 2026-05-07 22:03 | 40.59725 | -73.48836 | 4203 ft | 266 kts | 219° |
| 2026-05-07 22:03 | 40.58226 | -73.50267 | 3868 ft | 266 kts | 218° |
| 2026-05-07 22:03 | 40.56729 | -73.51702 | 3558 ft | 265 kts | 218° |
| 2026-05-07 22:04 | 40.55276 | -73.53103 | 3432 ft | 252 kts | 221° |
| 2026-05-07 22:04 | 40.54250 | -73.54838 | 3288 ft | 235 kts | 252° |
| 2026-05-07 22:04 | 40.54130 | -73.56880 | 3191 ft | 220 kts | 285° |
| 2026-05-07 22:04 | 40.54671 | -73.58676 | 3103 ft | 204 kts | 294° |
| 2026-05-07 22:05 | 40.55241 | -73.60339 | 2990 ft | 196 kts | 297° |
| 2026-05-07 22:05 | 40.55881 | -73.61899 | 2804 ft | 190 kts | 300° |
| 2026-05-07 22:05 | 40.56534 | -73.63356 | 2552 ft | 179 kts | 299° |
| 2026-05-07 22:05 | 40.57158 | -73.64733 | 2365 ft | 176 kts | 298° |
| 2026-05-07 22:06 | 40.57791 | -73.66129 | 2114 ft | 175 kts | 298° |
| 2026-05-07 22:06 | 40.58386 | -73.67440 | 1894 ft | 162 kts | 298° |
| 2026-05-07 22:06 | 40.58958 | -73.68702 | 1675 ft | 160 kts | 300° |
| 2026-05-07 22:06 | 40.59527 | -73.69962 | 1453 ft | 160 kts | 300° |
| 2026-05-07 22:07 | 40.60080 | -73.71181 | 1249 ft | 149 kts | 302° |
| 2026-05-07 22:07 | 40.60588 | -73.72302 | 1054 ft | 139 kts | 303° |
| 2026-05-07 22:07 | 40.61084 | -73.73393 | 879 ft | 140 kts | 303° |
| 2026-05-07 22:07 | 40.61549 | -73.74416 | 682 ft | 141 kts | 303° |
| 2026-05-07 22:08 | 40.62074 | -73.75508 | 407 ft | 139 kts | 304° |
| 2026-05-07 22:08 | 40.62496 | -73.76547 | 275 ft | 123 kts | 305° |
| 2026-05-07 22:08 | 40.62957 | -73.77524 | 128 ft | 129 kts | 306° |
| 2026-05-07 22:08 | 40.63415 | -73.78535 | 45 ft | 126 kts | 304° |
| 2026-05-07 22:09 | 40.63810 | -73.79405 | 25 ft | 83 kts | 301° |
| 2026-05-07 22:09 | 40.63966 | -73.79736 | 27 ft | 45 kts | 302° |
| 2026-05-07 22:09 | 40.64075 | -73.79899 | 27 ft | 14 kts | 5° |
| 2026-05-07 22:09 | 40.64145 | -73.79809 | 26 ft | 15 kts | 63° |
| 2026-05-07 22:10 | 40.64168 | -73.79654 | 26 ft | 24 kts | 81° |
| 2026-05-07 22:10 | 40.64238 | -73.79504 | 28 ft | 18 kts | 17° |
| 2026-05-07 22:10 | 40.64361 | -73.79491 | 27 ft | 18 kts | 1° |
| 2026-05-07 22:10 | 40.64486 | -73.79499 | 25 ft | 18 kts | 354° |
| 2026-05-07 22:11 | 40.64610 | -73.79534 | 25 ft | 18 kts | 333° |
| 2026-05-07 22:11 | 40.64627 | -73.79549 | 24 ft | 0 kts | 324° |
| 2026-05-07 22:13 | 40.64640 | -73.79561 | 24 ft | 4 kts | 325° |
| 2026-05-07 22:13 | 40.64646 | -73.79566 | 24 ft | 1 kts | 325° |
| 2026-05-07 22:13 | 40.64703 | -73.79612 | 23 ft | 17 kts | 345° |
| 2026-05-07 22:13 | 40.64773 | -73.79536 | 23 ft | 6 kts | 91° |
| 2026-05-07 22:14 | 40.64724 | -73.79502 | 24 ft | 0 kts | 165° |